Huvudsida
METAR-TAF:

METAR-TAF

Flygplatser :

Oslo flygplats. Gardermoen

Oslo, Norge

latitud: 60-12N, longitud: 011-05E, höjd: 208 m

Aktuellt väderrapport

Denna rapport gjordes för 11 minuter sedan, klockan 14:20 UTC
Vind 7 kt från syd/sydväst
Temperatur 7°C
Fuktighet 81%
Tryck 1033 hPa
Sikt 10 km eller mer
Brutna moln på en höjd av 1800 ft

METAR: ENGM 161420Z 21007KT 9999 BKN018 07/04 Q1033 NOSIG

Tid: 15:31 (14:31 UTC)

Väderprognos

Prognos gäller från 16 kl. 12 UTC till 17 kl. 12 UTC
Vind 10 kt från syd
Sikt 10 km eller mer
Få moln på en höjd av 1200 ft
Brutna moln på en höjd av 2000 ft
Temporärt
från 16 kl. 17 UTC till 17 kl. 10 UTC
Brutna moln på en höjd av 1200 ft
Blir
från 16 kl. 23 UTC till 17 kl. 01 UTC
Vind 5 kt från nord
Sannolikhet 30%
från 17 kl. 00 UTC till 17 kl. 08 UTC
Sikt: 0700 m
på en höjd av 200 ft
dimma

TAF: ENGM 1612/1712 19010KT 9999 FEW012 BKN020 TEMPO 1617/1710 BKN012 BECMG 1623/1701 35005KT PROB30 1700/1708 0700 FG VV002

Aktuella väderrapporter och prognoser från 4000 flygplatser (METAR- och TAF-rapporter).

De tillgängliga stationerna syns som gula och röda prickar på kartan.

För musen över prickarna för att se namnen på stationerna.

Klicka sedan för att få väderrapporter och prognoser.

För att ändra kartan: Klicka på de gröna knapparna med ett svart kors på för att zooma in; den gröna knappen med ett streck på för att zooma ut; eller på de gröna pilarna för angränsande kartor.


METAR-TAF: